createdAt,value
2023-05-22T00:03:50.936Z,17.90
2023-05-22T00:09:59.854Z,16.75
2023-05-22T00:16:04.403Z,15.75
2023-05-22T00:22:06.484Z,17.70
2023-05-22T00:28:08.561Z,17.60
2023-05-22T00:34:10.993Z,17.48
2023-05-22T00:40:16.311Z,17.08
2023-05-22T00:46:23.016Z,17.95
2023-05-22T00:52:25.526Z,16.73
2023-05-22T00:58:27.904Z,16.02
2023-05-22T01:04:32.901Z,17.83
2023-05-22T01:10:36.644Z,17.00
2023-05-22T01:17:09.087Z,17.67
2023-05-22T01:23:24.531Z,16.52
2023-05-22T01:29:35.329Z,16.58
2023-05-22T01:35:39.612Z,17.25
2023-05-22T01:41:41.782Z,17.08
2023-05-22T01:47:45.868Z,16.63
2023-05-22T01:54:20.171Z,15.93
2023-05-22T02:00:24.355Z,15.20
2023-05-22T02:06:32.290Z,15.32
2023-05-22T02:18:41.682Z,16.15
2023-05-22T02:24:47.372Z,17.52
2023-05-22T02:30:50.791Z,17.50
2023-05-22T02:36:53.626Z,18.08
2023-05-22T02:42:55.660Z,19.50
2023-05-22T02:48:57.542Z,17.85
2023-05-22T02:54:59.432Z,19.65
2023-05-22T03:01:01.667Z,18.50
2023-05-22T03:07:03.631Z,19.83
2023-05-22T03:13:06.133Z,19.80
2023-05-22T03:19:13.440Z,20.67
2023-05-22T03:25:15.891Z,20.20
2023-05-22T03:31:18.015Z,22.83
2023-05-22T03:37:33.964Z,22.10
2023-05-22T03:43:36.365Z,19.33
2023-05-22T03:49:38.479Z,19.15
2023-05-22T03:55:40.635Z,18.13
2023-05-22T04:01:42.672Z,17.40
2023-05-22T04:07:44.581Z,16.52
2023-05-22T04:13:49.358Z,16.92
2023-05-22T04:19:51.248Z,16.70
2023-05-22T04:25:53.325Z,17.02
2023-05-22T04:31:55.561Z,14.93
2023-05-22T04:38:02.266Z,14.88
2023-05-22T04:44:04.419Z,14.25
2023-05-22T04:50:06.957Z,14.13
2023-05-22T04:56:08.836Z,14.40
2023-05-22T05:02:11.421Z,14.95
2023-05-22T05:08:13.396Z,14.75
2023-05-22T05:14:15.733Z,15.02
2023-05-22T05:20:20.055Z,15.00
2023-05-22T05:26:27.270Z,14.27
2023-05-22T05:32:30.792Z,14.33
2023-05-22T05:38:45.158Z,13.07
2023-05-22T05:44:48.111Z,13.05
2023-05-22T05:50:50.096Z,14.80
2023-05-22T05:56:52.764Z,12.63
2023-05-22T06:02:55.193Z,14.32
2023-05-22T06:09:08.204Z,13.52
2023-05-22T06:15:22.856Z,11.88
2023-05-22T06:21:24.984Z,12.00
2023-05-22T06:27:27.832Z,11.82
2023-05-22T06:33:30.923Z,11.15
2023-05-22T06:39:33.073Z,12.07
2023-05-22T06:45:52.009Z,11.35
2023-05-22T06:51:53.886Z,12.05
2023-05-22T06:57:56.320Z,11.10
2023-05-22T07:04:04.953Z,11.00
2023-05-22T07:10:12.354Z,10.30
2023-05-22T07:16:15.116Z,9.93
2023-05-22T07:22:17.917Z,10.20
2023-05-22T07:28:20.254Z,10.38
2023-05-22T07:34:32.956Z,9.48
2023-05-22T07:40:36.456Z,9.48
2023-05-22T07:46:38.631Z,10.00
2023-05-22T07:52:46.741Z,9.68
2023-05-22T07:58:49.083Z,9.68
2023-05-22T08:04:54.087Z,9.43
2023-05-22T08:11:03.965Z,9.27
2023-05-22T08:17:06.661Z,8.98
2023-05-22T08:23:08.884Z,9.18
2023-05-22T08:29:11.597Z,8.68
2023-05-22T08:35:17.948Z,8.73
2023-05-22T08:41:19.863Z,8.65
2023-05-22T08:47:24.710Z,8.35
2023-05-22T08:53:28.590Z,9.13
2023-05-22T08:59:30.888Z,9.05
2023-05-22T09:05:34.227Z,9.10
2023-05-22T09:11:36.678Z,8.50
2023-05-22T09:17:42.693Z,8.48
2023-05-22T09:23:51.422Z,8.30
2023-05-22T09:29:57.610Z,8.75
2023-05-22T09:36:00.411Z,7.80
2023-05-22T09:42:02.748Z,8.30
2023-05-22T09:48:09.795Z,8.20
2023-05-22T09:54:13.545Z,8.15
2023-05-22T10:00:19.357Z,7.70
2023-05-22T10:06:23.016Z,9.15
2023-05-22T10:12:27.846Z,7.90
2023-05-22T10:18:30.413Z,7.97
2023-05-22T10:24:32.898Z,7.28
2023-05-22T10:30:38.201Z,7.57
2023-05-22T10:37:30.534Z,7.25
2023-05-22T10:43:32.882Z,6.85
2023-05-22T10:49:35.002Z,6.60
2023-05-22T10:55:50.329Z,7.03
2023-05-22T11:02:01.059Z,6.57
2023-05-22T11:08:26.606Z,6.32
2023-05-22T11:14:29.498Z,5.85
2023-05-22T11:20:37.866Z,7.20
2023-05-22T11:26:42.845Z,6.40
2023-05-22T11:32:46.338Z,6.15
2023-05-22T11:38:48.310Z,6.65
2023-05-22T11:44:50.493Z,5.97
2023-05-22T11:50:52.383Z,5.47
2023-05-22T11:56:54.302Z,5.70
2023-05-22T12:02:56.552Z,5.38
2023-05-22T12:08:59.955Z,5.80
2023-05-22T12:15:05.991Z,5.82
2023-05-22T12:21:08.056Z,5.43
2023-05-22T12:27:10.968Z,5.32
2023-05-22T12:33:18.035Z,5.90
2023-05-22T12:39:20.189Z,5.15
2023-05-22T12:45:22.121Z,5.85
2023-05-22T12:51:27.073Z,5.22
2023-05-22T12:57:29.007Z,4.95
2023-05-22T13:03:31.289Z,5.22
2023-05-22T13:09:33.173Z,5.78
2023-05-22T13:15:36.260Z,5.47
2023-05-22T13:21:38.405Z,5.90
2023-05-22T13:27:40.626Z,5.53
2023-05-22T13:33:42.617Z,5.68
2023-05-22T13:39:44.573Z,5.78
2023-05-22T13:45:46.504Z,5.30
2023-05-22T13:51:48.642Z,5.45
2023-05-22T13:57:50.634Z,5.57
2023-05-22T14:03:52.608Z,5.78
2023-05-22T14:09:54.447Z,5.25
2023-05-22T14:15:56.325Z,5.47
2023-05-22T14:21:58.255Z,5.45
2023-05-22T14:28:00.208Z,5.13
2023-05-22T14:34:02.076Z,5.47
2023-05-22T14:40:04.524Z,5.65
2023-05-22T14:46:06.803Z,5.30
2023-05-22T14:52:08.784Z,5.78
2023-05-22T14:58:11.106Z,5.88
2023-05-22T15:04:13.010Z,5.68
2023-05-22T15:10:14.870Z,5.80
2023-05-22T15:16:16.775Z,5.32
2023-05-22T15:22:20.117Z,5.75
2023-05-22T15:28:22.332Z,5.65
2023-05-22T15:34:24.295Z,6.30
2023-05-22T15:40:26.237Z,5.90
2023-05-22T15:46:28.132Z,6.55
2023-05-22T15:52:30.164Z,5.97
2023-05-22T15:58:32.241Z,5.88
2023-05-22T16:04:34.185Z,5.63
2023-05-22T16:10:36.836Z,6.20
2023-05-22T16:16:38.710Z,5.57
2023-05-22T16:28:48.961Z,5.93
2023-05-22T16:34:50.814Z,5.60
2023-05-22T16:40:52.978Z,5.93
2023-05-22T16:46:54.838Z,5.50
2023-05-22T16:52:56.743Z,6.18
2023-05-22T16:58:58.906Z,6.45
2023-05-22T17:05:01.115Z,6.55
2023-05-22T17:11:02.953Z,6.85
2023-05-22T17:17:05.146Z,7.38
2023-05-22T17:23:07.336Z,7.15
2023-05-22T17:29:10.940Z,7.03
2023-05-22T17:35:12.834Z,8.30
2023-05-22T17:41:14.726Z,8.20
2023-05-22T17:47:16.650Z,9.27
2023-05-22T17:53:19.829Z,11.00
2023-05-22T17:59:21.641Z,9.80
2023-05-22T18:05:23.573Z,8.90
2023-05-22T18:11:26.181Z,8.73
2023-05-22T18:17:28.370Z,8.93
2023-05-22T18:23:30.353Z,10.10
2023-05-22T18:29:32.379Z,9.25
2023-05-22T18:35:34.325Z,10.88
2023-05-22T18:41:37.064Z,11.20
2023-05-22T18:47:39.057Z,11.38
2023-05-22T18:53:41.089Z,11.40
2023-05-22T18:59:43.543Z,11.68
2023-05-22T19:05:46.023Z,12.50
2023-05-22T19:11:47.877Z,12.10
2023-05-22T19:17:49.755Z,13.63
2023-05-22T19:23:51.588Z,13.20
2023-05-22T19:29:53.401Z,13.27
2023-05-22T19:35:55.377Z,14.00
2023-05-22T19:41:57.183Z,14.77
2023-05-22T19:47:58.999Z,14.45
2023-05-22T19:54:01.176Z,14.30
2023-05-22T20:00:07.327Z,12.98
2023-05-22T20:06:09.460Z,14.48
2023-05-22T20:12:11.548Z,16.35
2023-05-22T20:18:14.405Z,17.65
2023-05-22T20:24:17.543Z,15.20
2023-05-22T20:30:19.520Z,14.35
2023-05-22T20:36:22.353Z,14.85
2023-05-22T20:42:24.215Z,14.55
2023-05-22T20:48:26.144Z,13.15
2023-05-22T20:54:34.228Z,14.48
2023-05-22T21:00:36.312Z,10.90
2023-05-22T21:06:39.009Z,9.75
2023-05-22T21:12:40.864Z,10.27
2023-05-22T21:18:42.738Z,10.98
2023-05-22T21:24:44.561Z,9.35
2023-05-22T21:30:46.391Z,9.27
2023-05-22T21:36:49.111Z,9.82
2023-05-22T21:42:50.924Z,9.38
2023-05-22T21:48:53.821Z,10.55
2023-05-22T21:54:55.856Z,9.60
2023-05-22T22:00:57.915Z,9.45
2023-05-22T22:06:59.801Z,9.50
2023-05-22T22:13:02.448Z,9.90
2023-05-22T22:19:04.971Z,10.43
2023-05-22T22:25:07.336Z,9.38
2023-05-22T22:31:09.213Z,10.20
2023-05-22T22:37:11.885Z,10.65
2023-05-22T22:43:13.686Z,8.95
2023-05-22T22:49:15.848Z,11.40
2023-05-22T22:55:18.087Z,12.20
2023-05-22T23:01:20.154Z,11.38
2023-05-22T23:07:23.977Z,10.07
2023-05-22T23:13:25.897Z,10.75
2023-05-22T23:19:27.804Z,11.20
2023-05-22T23:25:29.691Z,13.43
2023-05-22T23:31:31.877Z,14.20
2023-05-22T23:37:33.687Z,14.77
2023-05-22T23:43:35.531Z,14.18
2023-05-22T23:49:37.480Z,13.32
2023-05-22T23:55:39.463Z,11.48
